createdAt,value
2023-02-22T00:04:58.730Z,100.00
2023-02-22T00:10:00.405Z,100.00
2023-02-22T00:15:01.992Z,100.00
2023-02-22T00:20:04.204Z,100.00
2023-02-22T00:25:06.123Z,100.00
2023-02-22T00:30:08.348Z,100.00
2023-02-22T00:35:10.074Z,100.00
2023-02-22T00:40:16.471Z,100.00
2023-02-22T00:45:20.787Z,100.00
2023-02-22T00:50:24.724Z,100.00
2023-02-22T00:55:29.004Z,100.00
2023-02-22T01:00:35.222Z,100.00
2023-02-22T01:05:37.588Z,100.00
2023-02-22T01:10:40.042Z,100.00
2023-02-22T01:15:43.153Z,100.00
2023-02-22T01:20:44.662Z,100.00
2023-02-22T01:25:46.237Z,100.00
2023-02-22T01:30:49.739Z,100.00
2023-02-22T01:35:51.583Z,100.00
2023-02-22T01:40:53.272Z,100.00
2023-02-22T01:46:01.322Z,100.00
2023-02-22T01:51:19.491Z,100.00
2023-02-22T01:56:23.287Z,100.00
2023-02-22T02:01:28.584Z,100.00
2023-02-22T02:06:33.788Z,100.00
2023-02-22T02:11:35.616Z,100.00
2023-02-22T02:16:46.310Z,100.00
2023-02-22T02:22:11.231Z,100.00
2023-02-22T02:28:10.510Z,100.00
2023-02-22T02:33:40.020Z,100.00
2023-02-22T02:38:50.633Z,100.00
2023-02-22T02:44:18.001Z,100.00
2023-02-22T02:49:26.135Z,100.00
2023-02-22T02:54:28.350Z,100.00
2023-02-22T02:59:35.597Z,100.00
2023-02-22T03:04:58.731Z,100.00
2023-02-22T03:10:19.233Z,100.00
2023-02-22T03:15:31.521Z,100.00
2023-02-22T03:20:41.542Z,100.00
2023-02-22T03:25:51.756Z,100.00
2023-02-22T03:31:07.867Z,100.00
2023-02-22T03:36:15.996Z,100.00
2023-02-22T03:41:22.483Z,100.00
2023-02-22T03:46:25.177Z,100.00
2023-02-22T03:51:27.573Z,100.00
2023-02-22T03:56:37.450Z,100.00
2023-02-22T04:01:39.316Z,100.00
2023-02-22T04:06:41.203Z,100.00
2023-02-22T04:11:43.867Z,100.00
2023-02-22T04:16:46.623Z,100.00
2023-02-22T04:21:48.362Z,100.00
2023-02-22T04:26:55.867Z,100.00
2023-02-22T04:31:58.438Z,100.00
2023-02-22T04:37:00.951Z,100.00
2023-02-22T04:42:02.974Z,100.00
2023-02-22T04:47:04.940Z,100.00
2023-02-22T04:52:06.609Z,100.00
2023-02-22T04:57:11.527Z,100.00
2023-02-22T05:02:14.627Z,100.00
2023-02-22T05:07:16.761Z,100.00
2023-02-22T05:12:18.376Z,100.00
2023-02-22T05:17:19.968Z,100.00
2023-02-22T05:22:21.623Z,100.00
2023-02-22T05:27:23.169Z,100.00
2023-02-22T05:32:24.888Z,100.00
2023-02-22T05:37:26.504Z,100.00
2023-02-22T05:42:28.052Z,100.00
2023-02-22T05:47:29.598Z,100.00
2023-02-22T05:52:31.207Z,100.00
2023-02-22T05:57:32.889Z,100.00
2023-02-22T06:02:34.555Z,100.00
2023-02-22T06:07:36.059Z,100.00
2023-02-22T06:12:37.635Z,100.00
2023-02-22T06:17:39.249Z,100.00
2023-02-22T06:22:40.788Z,100.00
2023-02-22T06:27:42.641Z,100.00
2023-02-22T06:32:44.297Z,100.00
2023-02-22T06:37:45.930Z,100.00
2023-02-22T06:42:49.318Z,100.00
2023-02-22T06:47:50.965Z,100.00
2023-02-22T06:52:52.707Z,100.00
2023-02-22T06:57:54.371Z,100.00
2023-02-22T07:02:56.900Z,100.00
2023-02-22T07:08:05.274Z,100.00
2023-02-22T07:13:08.254Z,100.00
2023-02-22T07:18:10.119Z,100.00
2023-02-22T07:23:15.305Z,100.00
2023-02-22T07:28:17.161Z,100.00
2023-02-22T07:33:18.748Z,100.00
2023-02-22T07:38:20.371Z,100.00
2023-02-22T07:43:24.992Z,100.00
2023-02-22T07:48:30.237Z,100.00
2023-02-22T07:53:33.177Z,100.00
2023-02-22T07:58:35.221Z,100.00
2023-02-22T08:03:37.172Z,100.00
2023-02-22T08:08:38.968Z,100.00
2023-02-22T08:13:40.676Z,100.00
2023-02-22T08:18:42.875Z,100.00
2023-02-22T08:23:44.776Z,100.00
2023-02-22T08:28:46.448Z,100.00
2023-02-22T08:33:48.834Z,100.00
2023-02-22T08:38:50.524Z,100.00
2023-02-22T08:43:52.132Z,100.00
2023-02-22T08:48:53.939Z,100.00
2023-02-22T08:53:55.548Z,100.00
2023-02-22T08:58:57.156Z,100.00
2023-02-22T09:03:58.763Z,100.00
2023-02-22T09:09:00.553Z,100.00
2023-02-22T09:14:02.060Z,100.00
2023-02-22T09:19:04.078Z,100.00
2023-02-22T09:24:06.658Z,100.00
2023-02-22T09:29:09.313Z,100.00
2023-02-22T09:34:10.961Z,100.00
2023-02-22T09:39:13.560Z,100.00
2023-02-22T09:44:29.114Z,100.00
2023-02-22T09:49:33.783Z,100.00
2023-02-22T09:54:55.132Z,100.00
2023-02-22T10:00:15.431Z,100.00
2023-02-22T10:05:27.353Z,100.00
2023-02-22T10:10:35.419Z,100.00
2023-02-22T10:15:45.073Z,100.00
2023-02-22T10:21:01.860Z,100.00
2023-02-22T10:26:14.911Z,100.00
2023-02-22T10:31:25.230Z,100.00
2023-02-22T10:36:27.416Z,100.00
2023-02-22T10:41:32.955Z,100.00
2023-02-22T10:46:35.219Z,100.00
2023-02-22T10:51:37.024Z,100.00
2023-02-22T10:56:50.820Z,99.47
2023-02-22T11:01:52.987Z,99.59
2023-02-22T11:07:00.439Z,98.92
2023-02-22T11:12:17.352Z,98.75
2023-02-22T11:17:34.412Z,90.71
2023-02-22T11:22:41.486Z,87.32
2023-02-22T11:27:44.976Z,88.91
2023-02-22T11:32:50.246Z,86.32
2023-02-22T11:37:51.991Z,88.68
2023-02-22T11:43:14.316Z,86.99
2023-02-22T11:48:19.935Z,90.74
2023-02-22T11:53:33.959Z,88.64
2023-02-22T11:58:44.341Z,89.36
2023-02-22T12:04:17.579Z,90.44
2023-02-22T12:09:40.568Z,92.64
2023-02-22T12:15:23.562Z,92.38
2023-02-22T12:20:27.207Z,93.49
2023-02-22T12:25:33.740Z,91.80
2023-02-22T12:30:37.650Z,90.81
2023-02-22T12:35:51.180Z,94.90
2023-02-22T12:41:17.497Z,97.85
2023-02-22T12:46:36.152Z,94.47
2023-02-22T12:52:21.306Z,92.31
2023-02-22T12:57:23.638Z,90.09
2023-02-22T13:02:44.196Z,90.48
2023-02-22T13:08:06.129Z,88.42
2023-02-22T13:13:39.290Z,88.60
2023-02-22T13:19:04.457Z,86.34
2023-02-22T13:24:17.934Z,88.41
2023-02-22T13:29:25.969Z,86.34
2023-02-22T13:34:33.578Z,84.92
2023-02-22T13:39:41.191Z,81.25
2023-02-22T13:44:54.913Z,79.73
2023-02-22T13:50:25.266Z,78.17
2023-02-22T13:55:32.948Z,78.82
2023-02-22T14:00:52.842Z,79.34
2023-02-22T14:05:54.484Z,79.33
2023-02-22T14:10:58.589Z,78.92
2023-02-22T14:16:00.211Z,81.45
2023-02-22T14:21:13.054Z,79.66
2023-02-22T14:26:33.640Z,79.07
2023-02-22T14:31:41.339Z,78.08
2023-02-22T14:36:59.743Z,75.85
2023-02-22T14:42:19.422Z,78.36
2023-02-22T14:47:31.964Z,80.17
2023-02-22T14:52:38.660Z,87.38
2023-02-22T14:58:04.965Z,85.21
2023-02-22T15:03:28.224Z,85.39
2023-02-22T15:08:30.717Z,83.92
2023-02-22T15:13:32.415Z,79.57
2023-02-22T15:18:35.363Z,81.58
2023-02-22T15:23:44.509Z,83.46
2023-02-22T15:28:47.607Z,85.55
2023-02-22T15:33:49.136Z,90.12
2023-02-22T15:38:52.498Z,89.05
2023-02-22T15:44:24.145Z,89.01
2023-02-22T15:49:25.983Z,89.98
2023-02-22T15:54:28.243Z,90.20
2023-02-22T15:59:30.053Z,92.28
2023-02-22T16:04:31.730Z,89.42
2023-02-22T16:09:33.914Z,89.50
2023-02-22T16:14:35.420Z,92.81
2023-02-22T16:19:39.656Z,94.67
2023-02-22T16:24:42.302Z,96.60
2023-02-22T16:30:00.166Z,100.00
2023-02-22T16:35:01.819Z,100.00
2023-02-22T16:40:03.676Z,100.00
2023-02-22T16:45:05.479Z,100.00
2023-02-22T16:50:07.748Z,100.00
2023-02-22T16:55:12.372Z,100.00
2023-02-22T17:00:24.450Z,100.00
2023-02-22T17:05:26.056Z,100.00
2023-02-22T17:10:27.636Z,100.00
2023-02-22T17:15:32.433Z,100.00
2023-02-22T17:20:34.086Z,100.00
2023-02-22T17:25:48.473Z,100.00
2023-02-22T17:30:50.769Z,100.00
2023-02-22T17:35:53.850Z,100.00
2023-02-22T17:40:56.723Z,100.00
2023-02-22T17:45:58.951Z,100.00
2023-02-22T17:51:05.578Z,100.00
2023-02-22T17:56:08.262Z,100.00
2023-02-22T18:01:20.750Z,100.00
2023-02-22T18:06:25.492Z,100.00
2023-02-22T18:11:28.936Z,100.00
2023-02-22T18:16:30.570Z,100.00
2023-02-22T18:21:32.288Z,100.00
2023-02-22T18:26:34.043Z,100.00
2023-02-22T18:31:36.172Z,100.00
2023-02-22T18:36:37.783Z,100.00
2023-02-22T18:41:39.443Z,100.00
2023-02-22T18:46:42.068Z,100.00
2023-02-22T18:51:43.734Z,100.00
2023-02-22T18:56:45.796Z,100.00
2023-02-22T19:01:49.193Z,100.00
2023-02-22T19:06:53.786Z,100.00
2023-02-22T19:11:55.374Z,100.00
2023-02-22T19:16:56.979Z,100.00
2023-02-22T19:21:58.696Z,100.00
2023-02-22T19:27:00.367Z,100.00
2023-02-22T19:32:02.058Z,100.00
2023-02-22T19:37:05.370Z,100.00
2023-02-22T19:42:07.067Z,100.00
2023-02-22T19:47:08.641Z,100.00
2023-02-22T19:52:10.311Z,100.00
2023-02-22T19:57:11.901Z,100.00
2023-02-22T20:02:13.449Z,100.00
2023-02-22T20:07:15.189Z,100.00
2023-02-22T20:12:16.715Z,100.00
2023-02-22T20:17:18.247Z,100.00
2023-02-22T20:22:20.762Z,100.00
2023-02-22T20:27:22.353Z,100.00
2023-02-22T20:32:24.005Z,100.00
2023-02-22T20:37:25.792Z,100.00
2023-02-22T20:42:27.538Z,100.00
2023-02-22T20:47:29.143Z,100.00
2023-02-22T20:52:30.673Z,100.00
2023-02-22T20:57:32.168Z,100.00
2023-02-22T21:02:33.702Z,100.00
2023-02-22T21:07:35.353Z,100.00
2023-02-22T21:12:36.915Z,100.00
2023-02-22T21:17:38.445Z,100.00
2023-02-22T21:22:39.998Z,100.00
2023-02-22T21:27:41.648Z,100.00
2023-02-22T21:32:43.300Z,100.00
2023-02-22T21:37:45.184Z,100.00
2023-02-22T21:42:50.125Z,100.00
2023-02-22T21:47:52.372Z,100.00
2023-02-22T21:52:54.322Z,100.00
2023-02-22T21:57:56.553Z,100.00
2023-02-22T22:02:58.525Z,100.00
2023-02-22T22:08:01.278Z,100.00
2023-02-22T22:13:02.860Z,100.00
2023-02-22T22:18:04.672Z,100.00
2023-02-22T22:23:07.104Z,100.00
2023-02-22T22:28:10.317Z,100.00
2023-02-22T22:33:11.933Z,100.00
2023-02-22T22:38:13.528Z,100.00
2023-02-22T22:43:15.246Z,100.00
2023-02-22T22:48:16.889Z,100.00
2023-02-22T22:53:18.569Z,100.00
2023-02-22T22:58:20.192Z,100.00
2023-02-22T23:03:21.824Z,100.00
2023-02-22T23:08:23.395Z,100.00
2023-02-22T23:13:24.987Z,100.00
2023-02-22T23:18:26.795Z,100.00
2023-02-22T23:23:28.328Z,100.00
2023-02-22T23:28:30.022Z,100.00
2023-02-22T23:33:31.697Z,100.00
2023-02-22T23:38:33.838Z,100.00
2023-02-22T23:43:39.923Z,100.00
2023-02-22T23:48:43.939Z,100.00
2023-02-22T23:53:46.033Z,100.00
2023-02-22T23:58:49.071Z,100.00
